createdAt,value
2023-05-20T00:03:00.544Z,5.88
2023-05-20T00:08:06.322Z,6.63
2023-05-20T00:13:10.040Z,4.43
2023-05-20T00:18:14.596Z,3.60
2023-05-20T00:23:22.923Z,4.63
2023-05-20T00:28:26.544Z,5.15
2023-05-20T00:33:30.199Z,3.35
2023-05-20T00:38:35.766Z,5.38
2023-05-20T00:43:39.447Z,5.43
2023-05-20T00:48:44.973Z,4.53
2023-05-20T00:53:50.589Z,5.20
2023-05-20T00:58:54.397Z,5.47
2023-05-20T01:03:58.126Z,5.28
2023-05-20T01:09:03.487Z,5.97
2023-05-20T01:14:09.741Z,7.45
2023-05-20T01:19:23.038Z,4.97
2023-05-20T01:24:28.485Z,11.88
2023-05-20T01:29:32.184Z,8.20
2023-05-20T01:34:37.918Z,5.95
2023-05-20T01:39:46.231Z,5.45
2023-05-20T01:44:50.044Z,5.45
2023-05-20T01:49:53.687Z,5.22
2023-05-20T01:54:59.164Z,5.03
2023-05-20T02:00:02.848Z,8.68
2023-05-20T02:05:07.087Z,5.93
2023-05-20T02:10:12.903Z,8.07
2023-05-20T02:15:16.709Z,5.97
2023-05-20T02:20:20.405Z,5.32
2023-05-20T02:25:25.740Z,8.25
2023-05-20T02:35:32.435Z,6.95
2023-05-20T02:40:37.949Z,6.38
2023-05-20T02:45:42.235Z,7.90
2023-05-20T02:50:47.334Z,8.63
2023-05-20T02:55:52.720Z,6.97
2023-05-20T03:05:59.409Z,9.63
2023-05-20T03:11:05.526Z,7.22
2023-05-20T03:16:10.406Z,7.13
2023-05-20T03:21:14.102Z,8.13
2023-05-20T03:26:19.531Z,6.13
2023-05-20T03:31:23.206Z,6.80
2023-05-20T03:36:27.518Z,8.27
2023-05-20T03:41:33.258Z,7.03
2023-05-20T03:46:36.904Z,7.90
2023-05-20T03:51:40.601Z,7.43
2023-05-20T03:56:45.915Z,8.40
2023-05-20T04:01:49.610Z,8.35
2023-05-20T04:06:53.258Z,9.48
2023-05-20T04:11:58.620Z,7.03
2023-05-20T04:17:03.142Z,6.35
2023-05-20T04:22:07.080Z,7.45
2023-05-20T04:27:12.365Z,7.22
2023-05-20T04:32:18.450Z,7.78
2023-05-20T04:37:22.242Z,5.72
2023-05-20T04:42:28.646Z,6.38
2023-05-20T04:47:32.393Z,5.55
2023-05-20T04:52:36.084Z,8.45
2023-05-20T04:57:41.565Z,8.27
2023-05-20T05:02:45.978Z,7.13
2023-05-20T05:07:49.705Z,9.82
2023-05-20T05:12:55.019Z,9.73
2023-05-20T05:17:59.357Z,8.65
2023-05-20T05:23:03.018Z,9.57
2023-05-20T05:28:08.363Z,9.10
2023-05-20T05:33:12.128Z,8.13
2023-05-20T05:38:15.862Z,12.52
2023-05-20T05:43:21.228Z,9.55
2023-05-20T05:48:24.942Z,7.38
2023-05-20T05:53:28.848Z,8.80
2023-05-20T05:58:34.189Z,7.68
2023-05-20T06:03:38.065Z,10.98
2023-05-20T06:08:41.772Z,7.32
2023-05-20T06:13:48.057Z,9.05
2023-05-20T06:18:51.750Z,10.52
2023-05-20T06:23:55.404Z,8.30
2023-05-20T06:29:00.738Z,8.57
2023-05-20T06:34:04.413Z,10.13
2023-05-20T06:39:08.084Z,11.38
2023-05-20T06:44:13.386Z,8.68
2023-05-20T06:49:17.070Z,10.00
2023-05-20T06:54:20.731Z,7.38
2023-05-20T06:59:26.217Z,11.50
2023-05-20T07:04:29.978Z,7.88
2023-05-20T07:09:33.633Z,7.78
2023-05-20T07:14:40.002Z,9.27
2023-05-20T07:19:43.652Z,10.93
2023-05-20T07:24:49.447Z,13.68
2023-05-20T07:29:55.504Z,10.25
2023-05-20T07:34:59.155Z,9.95
2023-05-20T07:40:03.099Z,9.25
2023-05-20T07:45:09.698Z,8.23
2023-05-20T07:50:13.426Z,11.77
2023-05-20T07:55:17.197Z,8.60
2023-05-20T08:00:23.089Z,8.10
2023-05-20T08:10:29.772Z,8.90
2023-05-20T08:15:36.457Z,8.45
2023-05-20T08:20:40.179Z,10.77
2023-05-20T08:25:43.869Z,8.95
2023-05-20T08:30:49.247Z,10.30
2023-05-20T08:35:52.997Z,8.23
2023-05-20T08:40:58.009Z,8.30
2023-05-20T08:46:03.948Z,9.32
2023-05-20T08:51:10.941Z,7.93
2023-05-20T08:56:14.879Z,7.00
2023-05-20T09:01:20.381Z,9.90
2023-05-20T09:06:24.080Z,6.93
2023-05-20T09:11:27.807Z,7.18
2023-05-20T09:16:33.263Z,10.18
2023-05-20T09:21:37.027Z,7.43
2023-05-20T09:26:40.682Z,7.28
2023-05-20T09:31:46.093Z,6.70
2023-05-20T09:36:52.123Z,7.60
2023-05-20T09:42:03.747Z,5.20
2023-05-20T09:47:10.512Z,6.20
2023-05-20T09:52:16.091Z,5.18
2023-05-20T09:57:19.928Z,3.83
2023-05-20T10:02:25.345Z,3.67
2023-05-20T10:08:09.748Z,3.80
2023-05-20T10:13:24.531Z,3.28
2023-05-20T10:18:43.284Z,5.78
2023-05-20T10:23:47.440Z,2.60
2023-05-20T10:28:51.208Z,3.67
2023-05-20T10:33:59.692Z,3.42
2023-05-20T10:39:04.919Z,3.53
2023-05-20T10:44:08.605Z,2.00
2023-05-20T10:49:25.239Z,3.55
2023-05-20T10:54:36.056Z,3.95
2023-05-20T10:59:39.898Z,4.30
2023-05-20T11:04:45.939Z,4.68
2023-05-20T11:14:54.678Z,4.22
2023-05-20T11:20:00.194Z,5.28
2023-05-20T11:25:07.139Z,3.83
2023-05-20T11:30:12.673Z,4.85
2023-05-20T11:35:25.823Z,5.65
2023-05-20T11:40:38.947Z,5.35
2023-05-20T11:45:47.505Z,3.92
2023-05-20T11:50:55.609Z,3.70
2023-05-20T11:56:00.873Z,4.50
2023-05-20T12:01:13.998Z,5.40
2023-05-20T12:06:26.887Z,6.32
2023-05-20T12:11:30.547Z,8.20
2023-05-20T12:16:35.436Z,7.15
2023-05-20T12:21:40.810Z,6.65
2023-05-20T12:26:44.508Z,8.93
2023-05-20T12:31:48.566Z,7.95
2023-05-20T12:36:53.999Z,7.43
2023-05-20T12:41:57.702Z,7.87
2023-05-20T12:47:01.636Z,5.72
2023-05-20T12:52:11.894Z,9.82
2023-05-20T12:57:23.132Z,8.10
2023-05-20T13:02:26.857Z,6.43
2023-05-20T13:07:32.298Z,6.63
2023-05-20T13:12:36.057Z,6.37
2023-05-20T13:17:39.858Z,8.00
2023-05-20T13:22:45.161Z,8.95
2023-05-20T13:27:48.860Z,6.90
2023-05-20T13:32:52.971Z,7.50
2023-05-20T13:37:59.291Z,8.57
2023-05-20T13:43:02.950Z,7.53
2023-05-20T13:48:07.082Z,8.52
2023-05-20T13:53:12.430Z,5.35
2023-05-20T13:58:16.135Z,7.60
2023-05-20T14:03:19.986Z,6.63
2023-05-20T14:08:25.421Z,7.00
2023-05-20T14:13:29.085Z,9.77
2023-05-20T14:18:32.775Z,7.70
2023-05-20T14:23:38.230Z,9.13
2023-05-20T14:28:41.859Z,5.80
2023-05-20T14:33:45.526Z,5.72
2023-05-20T14:38:50.895Z,5.07
2023-05-20T14:43:54.535Z,5.60
2023-05-20T14:48:58.864Z,7.10
2023-05-20T14:54:04.231Z,5.75
2023-05-20T14:59:08.063Z,4.30
2023-05-20T15:04:11.838Z,4.63
2023-05-20T15:09:17.225Z,6.70
2023-05-20T15:14:20.970Z,5.15
2023-05-20T15:19:24.678Z,5.78
2023-05-20T15:24:30.137Z,7.50
2023-05-20T15:29:33.811Z,6.38
2023-05-20T15:34:37.507Z,6.43
2023-05-20T15:39:42.818Z,6.03
2023-05-20T15:44:46.759Z,5.05
2023-05-20T15:49:50.448Z,4.60
2023-05-20T15:54:55.957Z,4.63
2023-05-20T16:05:03.210Z,6.10
2023-05-20T16:10:09.930Z,4.32
2023-05-20T16:15:14.038Z,3.55
2023-05-20T16:20:17.662Z,3.45
2023-05-20T16:25:23.053Z,4.28
2023-05-20T16:30:26.855Z,2.67
2023-05-20T16:35:30.507Z,3.25
2023-05-20T16:40:36.814Z,3.10
2023-05-20T16:45:40.503Z,1.63
2023-05-20T16:50:44.228Z,2.38
2023-05-20T16:55:49.573Z,1.77
2023-05-20T17:05:56.573Z,1.88
2023-05-20T17:11:03.581Z,1.40
2023-05-20T17:16:09.881Z,1.40
2023-05-20T17:21:15.534Z,2.80
2023-05-20T17:26:21.066Z,2.05
2023-05-20T17:31:24.683Z,1.77
2023-05-20T17:36:29.292Z,3.25
2023-05-20T17:41:34.574Z,0.77
2023-05-20T17:46:38.394Z,2.10
2023-05-20T17:51:42.144Z,1.38
2023-05-20T17:56:48.920Z,0.85
2023-05-20T18:01:52.815Z,1.33
2023-05-20T18:06:56.570Z,1.42
2023-05-20T18:12:02.941Z,3.42
2023-05-20T18:17:06.781Z,1.17
2023-05-20T18:22:10.442Z,1.63
2023-05-20T18:27:15.749Z,3.35
2023-05-20T18:32:19.604Z,3.13
2023-05-20T18:37:23.264Z,2.35
2023-05-20T18:42:28.735Z,4.22
2023-05-20T18:47:32.933Z,2.40
2023-05-20T18:52:36.679Z,1.60
2023-05-20T18:57:41.998Z,2.22
2023-05-20T19:02:45.979Z,1.58
2023-05-20T19:07:49.649Z,2.88
2023-05-20T19:12:54.947Z,1.95
2023-05-20T19:17:58.704Z,4.07
2023-05-20T19:23:02.390Z,1.45
2023-05-20T19:28:07.983Z,2.38
2023-05-20T19:33:11.636Z,2.30
2023-05-20T19:38:15.449Z,2.70
2023-05-20T19:43:20.753Z,1.63
2023-05-20T19:48:24.393Z,1.65
2023-05-20T19:53:28.044Z,2.30
2023-05-20T19:58:34.294Z,2.58
2023-05-20T20:03:37.966Z,3.08
2023-05-20T20:08:41.697Z,3.25
2023-05-20T20:13:47.031Z,1.20
2023-05-20T20:18:50.686Z,1.83
2023-05-20T20:23:54.380Z,1.65
2023-05-20T20:29:00.608Z,2.25
2023-05-20T20:34:04.244Z,2.72
2023-05-20T20:39:07.964Z,3.42
2023-05-20T20:44:13.419Z,2.00
2023-05-20T20:49:17.167Z,2.53
2023-05-20T20:54:20.886Z,3.50
2023-05-20T20:59:26.402Z,3.30
2023-05-20T21:04:30.395Z,3.47
2023-05-20T21:09:34.091Z,3.47
2023-05-20T21:14:39.424Z,1.73
2023-05-20T21:19:43.097Z,1.83
2023-05-20T21:24:46.754Z,2.85
2023-05-20T21:29:52.092Z,2.90
2023-05-20T21:34:56.856Z,2.85
2023-05-20T21:40:02.045Z,2.80
2023-05-20T21:45:08.738Z,3.78
2023-05-20T21:50:13.268Z,4.65
2023-05-20T21:55:17.072Z,3.30
2023-05-20T22:00:22.405Z,4.53
2023-05-20T22:05:28.644Z,4.85
2023-05-20T22:10:32.330Z,5.68
2023-05-20T22:15:37.872Z,4.95
2023-05-20T22:20:41.745Z,5.57
2023-05-20T22:25:45.519Z,6.85
2023-05-20T22:30:50.975Z,4.63
2023-05-20T22:35:54.939Z,4.53
2023-05-20T22:40:58.680Z,5.03
2023-05-20T22:46:04.251Z,4.78
2023-05-20T22:51:08.088Z,5.30
2023-05-20T22:56:11.717Z,4.13
2023-05-20T23:01:17.111Z,3.50
2023-05-20T23:06:20.811Z,5.25
2023-05-20T23:11:24.498Z,6.88
2023-05-20T23:16:29.918Z,4.95
2023-05-20T23:21:33.691Z,5.93
2023-05-20T23:26:37.349Z,5.15
2023-05-20T23:31:42.690Z,4.43
2023-05-20T23:36:46.330Z,5.97
2023-05-20T23:41:49.919Z,5.05
2023-05-20T23:46:55.263Z,4.53
2023-05-20T23:51:58.940Z,3.88
2023-05-20T23:57:02.675Z,4.30
